createdAt,value
2018-01-05T00:02:25.074Z,41.50
2018-01-05T00:04:54.872Z,41.50
2018-01-05T00:07:25.642Z,39.50
2018-01-05T00:09:55.534Z,44.00
2018-01-05T00:12:25.639Z,45.50
2018-01-05T00:14:55.506Z,45.90
2018-01-05T00:17:28.144Z,46.60
2018-01-05T00:19:58.986Z,47.00
2018-01-05T00:22:28.832Z,47.20
2018-01-05T00:24:58.873Z,48.40
2018-01-05T00:27:30.051Z,51.00
2018-01-05T00:30:00.246Z,49.80
2018-01-05T00:32:30.752Z,50.90
2018-01-05T00:35:02.759Z,48.10
2018-01-05T00:37:32.440Z,48.20
2018-01-05T00:40:03.507Z,46.70
2018-01-05T00:42:32.991Z,46.70
2018-01-05T00:45:02.375Z,47.40
2018-01-05T00:47:32.040Z,46.10
2018-01-05T00:50:01.857Z,45.00
2018-01-05T00:52:31.441Z,47.10
2018-01-05T00:55:01.404Z,44.50
2018-01-05T00:57:31.148Z,45.70
2018-01-05T01:00:01.746Z,45.40
2018-01-05T01:02:31.256Z,45.10
2018-01-05T01:05:01.138Z,50.30
2018-01-05T01:07:32.348Z,50.20
2018-01-05T01:10:02.544Z,54.30
2018-01-05T01:12:32.967Z,55.60
2018-01-05T01:15:03.566Z,57.70
2018-01-05T01:17:34.730Z,58.30
2018-01-05T01:20:05.684Z,59.20
2018-01-05T01:22:35.161Z,59.30
2018-01-05T01:25:05.336Z,61.10
2018-01-05T01:27:35.221Z,61.10
2018-01-05T01:30:04.941Z,61.70
2018-01-05T01:32:34.475Z,61.40
2018-01-05T01:35:03.931Z,62.40
2018-01-05T01:37:35.255Z,64.80
2018-01-05T01:40:04.865Z,64.70
2018-01-05T01:42:35.645Z,64.90
2018-01-05T01:45:05.084Z,65.10
2018-01-05T01:47:34.626Z,65.30
2018-01-05T01:50:04.944Z,64.70
2018-01-05T01:52:34.279Z,63.40
2018-01-05T01:55:03.783Z,65.60
2018-01-05T01:57:35.723Z,66.80
2018-01-05T02:00:05.164Z,66.80
2018-01-05T02:02:35.239Z,69.40
2018-01-05T02:05:04.625Z,68.00
2018-01-05T02:07:34.927Z,68.10
2018-01-05T02:10:04.701Z,68.10
2018-01-05T02:12:35.097Z,69.40
2018-01-05T02:15:05.248Z,68.10
2018-01-05T02:17:35.758Z,65.50
2018-01-05T02:20:07.418Z,65.80
2018-01-05T02:22:37.222Z,65.90
2018-01-05T02:25:06.699Z,65.00
2018-01-05T02:27:36.885Z,64.10
2018-01-05T02:30:07.335Z,64.30
2018-01-05T02:32:38.315Z,64.70
2018-01-05T02:35:08.254Z,64.80
2018-01-05T02:37:37.693Z,64.40
2018-01-05T02:40:08.156Z,62.80
2018-01-05T02:42:39.471Z,62.70
2018-01-05T02:45:09.779Z,64.40
2018-01-05T02:47:39.290Z,64.20
2018-01-05T02:50:09.914Z,62.30
2018-01-05T02:52:40.203Z,60.40
2018-01-05T02:55:10.842Z,60.40
2018-01-05T02:57:40.412Z,60.60
2018-01-05T03:00:10.156Z,61.50
2018-01-05T03:02:39.919Z,60.10
2018-01-05T03:05:11.457Z,60.20
2018-01-05T03:07:42.672Z,59.40
2018-01-05T03:10:12.509Z,59.40
2018-01-05T03:12:44.016Z,59.70
2018-01-05T03:15:13.671Z,59.10
2018-01-05T03:17:43.596Z,59.10
2018-01-05T03:20:13.198Z,59.10
2018-01-05T03:22:45.662Z,57.40
2018-01-05T03:25:16.452Z,58.60
2018-01-05T03:27:48.051Z,58.60
2018-01-05T03:30:18.465Z,57.30
2018-01-05T03:32:48.411Z,57.70
2018-01-05T03:35:18.511Z,56.70
2018-01-05T03:37:48.302Z,57.00
2018-01-05T03:40:18.712Z,56.90
2018-01-05T03:42:49.003Z,56.80
2018-01-05T03:45:19.395Z,56.70
2018-01-05T03:47:50.240Z,56.30
2018-01-05T03:50:19.841Z,56.00
2018-01-05T03:52:55.300Z,56.30
2018-01-05T03:55:25.471Z,57.50
2018-01-05T03:57:55.609Z,54.50
2018-01-05T04:00:27.030Z,54.30
2018-01-05T04:02:57.333Z,55.80
2018-01-05T04:05:26.945Z,55.80
2018-01-05T04:07:57.670Z,54.30
2018-01-05T04:10:27.118Z,54.20
2018-01-05T04:12:57.465Z,53.80
2018-01-05T04:15:27.743Z,53.50
2018-01-05T04:17:57.911Z,53.00
2018-01-05T04:20:27.836Z,52.80
2018-01-05T04:23:00.715Z,53.50
2018-01-05T04:25:30.655Z,53.30
2018-01-05T04:28:01.860Z,52.00
2018-01-05T04:30:31.892Z,52.30
2018-01-05T04:33:01.496Z,52.00
2018-01-05T04:35:31.590Z,51.40
2018-01-05T04:38:01.694Z,50.80
2018-01-05T04:40:31.433Z,50.90
2018-01-05T04:43:00.802Z,51.40
2018-01-05T04:45:31.197Z,50.20
2018-01-05T04:48:01.727Z,50.20
2018-01-05T04:50:31.722Z,50.90
2018-01-05T04:53:01.117Z,50.80
2018-01-05T04:55:31.783Z,49.10
2018-01-05T04:58:01.425Z,50.00
2018-01-05T05:00:31.787Z,50.50
2018-01-05T05:03:01.896Z,50.10
2018-01-05T05:05:31.509Z,49.30
2018-01-05T05:08:01.301Z,48.70
2018-01-05T05:10:31.837Z,48.30
2018-01-05T05:13:01.673Z,48.40
2018-01-05T05:15:31.787Z,49.90
2018-01-05T05:18:01.325Z,48.80
2018-01-05T05:20:31.497Z,47.20
2018-01-05T05:23:01.050Z,47.10
2018-01-05T05:25:30.956Z,47.30
2018-01-05T05:28:02.649Z,47.70
2018-01-05T05:30:32.573Z,47.80
2018-01-05T05:33:02.173Z,48.20
2018-01-05T05:35:31.723Z,47.50
2018-01-05T05:38:07.091Z,48.10
2018-01-05T05:40:36.612Z,47.40
2018-01-05T05:43:07.026Z,46.90
2018-01-05T05:45:37.166Z,47.40
2018-01-05T05:48:06.859Z,48.50
2018-01-05T05:50:36.864Z,48.00
2018-01-05T05:53:07.984Z,48.10
2018-01-05T05:55:38.435Z,48.30
2018-01-05T05:58:08.070Z,48.40
2018-01-05T06:00:37.713Z,47.20
2018-01-05T06:03:07.408Z,47.80
2018-01-05T06:05:37.468Z,47.90
2018-01-05T06:08:07.181Z,47.10
2018-01-05T06:10:37.706Z,47.40
2018-01-05T06:13:07.572Z,46.90
2018-01-05T06:15:37.375Z,46.80
2018-01-05T06:18:07.343Z,47.00
2018-01-05T06:20:37.193Z,46.90
2018-01-05T06:23:08.490Z,47.50
2018-01-05T06:25:40.480Z,47.10
2018-01-05T06:28:10.378Z,46.60
2018-01-05T06:30:39.964Z,47.50
2018-01-05T06:33:09.683Z,46.90
2018-01-05T06:35:39.714Z,46.50
2018-01-05T06:38:08.961Z,46.40
2018-01-05T06:40:38.470Z,47.00
2018-01-05T06:43:08.432Z,46.60
2018-01-05T06:45:39.077Z,46.70
2018-01-05T06:48:09.646Z,46.60
2018-01-05T06:50:39.074Z,46.20
2018-01-05T06:53:09.372Z,46.30
2018-01-05T06:55:40.081Z,46.30
2018-01-05T06:58:09.859Z,48.30
2018-01-05T07:00:44.424Z,46.10
2018-01-05T07:03:14.232Z,45.80
2018-01-05T07:05:44.001Z,46.90
2018-01-05T07:08:14.157Z,46.80
2018-01-05T07:10:44.105Z,46.70
2018-01-05T07:13:14.064Z,46.60
2018-01-05T07:15:44.891Z,46.30
2018-01-05T07:18:14.864Z,46.50
2018-01-05T07:20:44.836Z,47.00
2018-01-05T07:23:15.286Z,46.90
2018-01-05T07:25:45.003Z,47.00
2018-01-05T07:28:14.905Z,47.30
2018-01-05T07:30:44.707Z,47.30
2018-01-05T07:33:14.550Z,46.80
2018-01-05T07:35:44.271Z,48.80
2018-01-05T07:38:14.727Z,48.50
2018-01-05T07:40:44.339Z,48.40
2018-01-05T07:43:13.617Z,48.90
2018-01-05T07:45:43.552Z,50.00
2018-01-05T07:48:14.276Z,54.70
2018-01-05T07:50:44.891Z,56.70
2018-01-05T07:53:15.389Z,55.90
2018-01-05T07:55:45.835Z,58.30
2018-01-05T07:58:15.257Z,57.40
2018-01-05T08:00:45.724Z,57.30
2018-01-05T08:03:15.792Z,57.20
2018-01-05T08:05:45.463Z,57.50
2018-01-05T08:08:15.691Z,58.10
2018-01-05T08:10:45.475Z,56.90
2018-01-05T08:13:14.866Z,58.20
2018-01-05T08:15:44.556Z,56.90
2018-01-05T08:18:14.110Z,56.50
2018-01-05T08:20:44.458Z,57.00
2018-01-05T08:23:14.359Z,58.00
2018-01-05T08:25:46.064Z,60.10
2018-01-05T08:28:16.236Z,61.80
2018-01-05T08:30:45.771Z,62.00
2018-01-05T08:33:15.908Z,60.90
2018-01-05T08:35:45.613Z,61.20
2018-01-05T08:38:15.352Z,62.10
2018-01-05T08:40:45.546Z,61.40
2018-01-05T08:43:15.425Z,59.90
2018-01-05T08:45:45.637Z,60.20
2018-01-05T08:48:15.326Z,60.10
2018-01-05T08:50:44.720Z,60.60
2018-01-05T08:53:14.494Z,60.50
2018-01-05T08:55:44.300Z,60.70
2018-01-05T08:58:14.111Z,61.00
2018-01-05T09:00:44.450Z,60.90
2018-01-05T09:03:14.809Z,61.20
2018-01-05T09:05:44.508Z,60.90
2018-01-05T09:08:14.584Z,60.80
2018-01-05T09:10:44.284Z,60.50
2018-01-05T09:13:13.786Z,60.80
2018-01-05T09:15:43.951Z,61.20
2018-01-05T09:18:14.103Z,60.70
2018-01-05T09:20:43.889Z,60.60
2018-01-05T09:23:13.584Z,60.70
2018-01-05T09:25:43.096Z,60.50
2018-01-05T09:28:13.233Z,61.00
2018-01-05T09:30:43.699Z,61.30
2018-01-05T09:33:13.713Z,61.40
2018-01-05T09:35:43.844Z,65.00
2018-01-05T09:38:14.080Z,64.80
2018-01-05T09:40:43.454Z,65.50
2018-01-05T09:43:13.146Z,66.50
2018-01-05T09:45:43.663Z,67.30
2018-01-05T09:48:13.649Z,67.20
2018-01-05T09:50:43.344Z,68.60
2018-01-05T09:53:13.580Z,68.40
2018-01-05T09:55:43.294Z,67.70
2018-01-05T09:58:14.040Z,67.60
2018-01-05T10:00:43.620Z,67.90
2018-01-05T10:03:13.218Z,67.00
2018-01-05T10:05:42.938Z,66.90
2018-01-05T10:08:14.072Z,66.70
2018-01-05T10:10:44.416Z,65.90
2018-01-05T10:13:14.121Z,66.00
2018-01-05T10:15:44.486Z,67.80
2018-01-05T10:18:14.150Z,67.10
2018-01-05T10:20:43.600Z,66.60
2018-01-05T10:23:17.023Z,67.20
2018-01-05T10:25:47.131Z,67.20
2018-01-05T10:28:16.627Z,67.30
2018-01-05T10:30:46.071Z,67.20
2018-01-05T10:33:15.587Z,66.90
2018-01-05T10:35:44.901Z,67.40
2018-01-05T10:38:14.369Z,69.60
2018-01-05T10:40:43.795Z,70.60
2018-01-05T10:43:13.210Z,71.80
2018-01-05T10:45:43.304Z,73.00
2018-01-05T10:48:13.849Z,72.00
2018-01-05T10:50:43.742Z,73.10
2018-01-05T10:53:13.585Z,72.80
2018-01-05T10:55:43.774Z,72.20
2018-01-05T10:58:13.871Z,72.50
2018-01-05T11:00:43.514Z,72.90
2018-01-05T11:03:13.589Z,73.70
2018-01-05T11:05:43.960Z,75.40
2018-01-05T11:08:16.655Z,75.40
2018-01-05T11:10:46.400Z,75.50
2018-01-05T11:13:16.659Z,76.90
2018-01-05T11:15:46.798Z,77.00
2018-01-05T11:18:17.121Z,76.60
2018-01-05T11:20:46.555Z,76.60
2018-01-05T11:23:16.665Z,77.40
2018-01-05T11:25:46.869Z,76.40
2018-01-05T11:28:16.593Z,76.20
2018-01-05T11:30:46.733Z,76.20
2018-01-05T11:33:16.509Z,76.20
2018-01-05T11:35:46.801Z,75.80
2018-01-05T11:38:16.906Z,75.80
2018-01-05T11:40:46.788Z,75.60
2018-01-05T11:43:16.196Z,76.40
2018-01-05T11:45:46.106Z,75.70
2018-01-05T11:48:16.091Z,75.30
2018-01-05T11:50:45.725Z,74.60
2018-01-05T11:53:16.594Z,74.60
2018-01-05T11:55:46.537Z,74.60
2018-01-05T11:58:15.969Z,74.60
2018-01-05T12:00:45.881Z,74.30
2018-01-05T12:03:16.248Z,73.40
2018-01-05T12:05:46.674Z,72.80
2018-01-05T12:08:16.231Z,72.80
2018-01-05T12:10:45.801Z,72.80
2018-01-05T12:13:15.159Z,71.60
2018-01-05T12:15:44.570Z,71.00
2018-01-05T12:18:13.818Z,71.20
2018-01-05T12:20:44.395Z,71.80
2018-01-05T12:23:15.239Z,71.80
2018-01-05T12:25:45.455Z,71.10
2018-01-05T12:28:15.205Z,71.20
2018-01-05T12:30:45.047Z,70.80
2018-01-05T12:33:14.787Z,71.20
2018-01-05T12:35:44.537Z,70.70
2018-01-05T12:38:15.610Z,70.30
2018-01-05T12:40:44.965Z,69.10
2018-01-05T12:43:14.681Z,69.70
2018-01-05T12:45:44.929Z,70.20
2018-01-05T12:48:15.096Z,70.10
2018-01-05T12:50:44.992Z,68.20
2018-01-05T12:53:14.764Z,68.40
2018-01-05T12:55:45.269Z,68.20
2018-01-05T12:58:15.284Z,66.60
2018-01-05T13:00:45.221Z,67.20
2018-01-05T13:03:15.899Z,66.70
2018-01-05T13:05:45.748Z,66.40
2018-01-05T13:08:15.860Z,66.60
2018-01-05T13:10:46.749Z,67.90
2018-01-05T13:13:16.971Z,68.40
2018-01-05T13:15:46.467Z,68.80
2018-01-05T13:18:16.495Z,71.60
2018-01-05T13:20:47.361Z,74.40
2018-01-05T13:23:17.023Z,74.40
2018-01-05T13:25:47.863Z,75.70
2018-01-05T13:28:18.612Z,75.50
2018-01-05T13:30:48.396Z,75.30
2018-01-05T13:33:19.907Z,76.30
2018-01-05T13:35:50.925Z,76.30
2018-01-05T13:38:21.335Z,75.20
2018-01-05T13:40:50.946Z,75.30
2018-01-05T13:43:20.548Z,75.30
2018-01-05T13:45:50.320Z,74.40
2018-01-05T13:48:21.133Z,74.00
2018-01-05T13:50:51.905Z,73.80
2018-01-05T13:53:23.603Z,73.40
2018-01-05T13:55:54.424Z,73.60
2018-01-05T13:58:24.125Z,73.60
2018-01-05T14:00:53.843Z,74.20
2018-01-05T14:03:24.197Z,72.80
2018-01-05T14:05:54.297Z,73.90
2018-01-05T14:08:24.266Z,74.10
2018-01-05T14:10:54.732Z,73.80
2018-01-05T14:13:24.510Z,73.90
2018-01-05T14:15:54.336Z,74.10
2018-01-05T14:18:24.047Z,74.40
2018-01-05T14:20:54.073Z,74.60
2018-01-05T14:23:25.815Z,74.20
2018-01-05T14:25:55.343Z,74.00
2018-01-05T14:28:25.630Z,73.90
2018-01-05T14:30:55.760Z,73.20
2018-01-05T14:33:25.396Z,73.10
2018-01-05T14:35:55.366Z,73.80
2018-01-05T14:38:26.227Z,72.30
2018-01-05T14:40:56.326Z,72.50
2018-01-05T14:43:26.204Z,72.30
2018-01-05T14:45:56.547Z,72.20
2018-01-05T14:48:27.141Z,72.20
2018-01-05T14:50:56.698Z,72.30
2018-01-05T14:53:26.992Z,72.50
2018-01-05T14:55:56.636Z,70.50
2018-01-05T14:58:26.933Z,71.70
2018-01-05T15:00:57.358Z,70.70
2018-01-05T15:03:27.026Z,70.80
2018-01-05T15:05:57.192Z,70.60
2018-01-05T15:08:26.861Z,72.30
2018-01-05T15:10:56.370Z,71.80
2018-01-05T15:13:26.106Z,70.90
2018-01-05T15:15:56.103Z,70.90
2018-01-05T15:18:26.185Z,70.80
2018-01-05T15:20:55.966Z,71.10
2018-01-05T15:23:25.130Z,70.40
2018-01-05T15:25:55.651Z,70.80
2018-01-05T15:28:25.709Z,71.20
2018-01-05T15:30:55.345Z,71.50
2018-01-05T15:33:25.124Z,71.40
2018-01-05T15:35:54.365Z,70.70
2018-01-05T15:38:24.321Z,70.30
2018-01-05T15:40:53.604Z,69.70
2018-01-05T15:43:23.453Z,69.90
2018-01-05T15:45:52.760Z,69.70
2018-01-05T15:48:23.321Z,69.20
2018-01-05T15:50:53.224Z,68.80
2018-01-05T15:53:22.701Z,69.30
2018-01-05T15:55:52.385Z,68.00
2018-01-05T15:58:22.793Z,67.50
2018-01-05T16:00:53.681Z,68.50
2018-01-05T16:03:23.683Z,68.40
2018-01-05T16:05:53.210Z,69.10
2018-01-05T16:08:22.519Z,68.20
2018-01-05T16:10:52.231Z,69.40
2018-01-05T16:13:22.008Z,70.90
2018-01-05T16:15:51.680Z,72.20
2018-01-05T16:18:21.464Z,73.70
2018-01-05T16:20:51.882Z,73.90
2018-01-05T16:23:21.544Z,74.70
2018-01-05T16:25:51.048Z,76.70
2018-01-05T16:28:20.683Z,76.80
2018-01-05T16:30:50.470Z,78.30
2018-01-05T16:33:20.329Z,76.10
2018-01-05T16:35:50.057Z,76.50
2018-01-05T16:38:20.001Z,77.70
2018-01-05T16:40:49.745Z,79.20
2018-01-05T16:43:19.135Z,79.80
2018-01-05T16:45:48.672Z,80.10
2018-01-05T16:48:18.586Z,81.90
2018-01-05T16:50:48.464Z,78.00
2018-01-05T16:53:17.835Z,78.00
2018-01-05T16:55:48.256Z,80.10
2018-01-05T16:58:18.752Z,79.90
2018-01-05T17:00:48.794Z,79.70
2018-01-05T17:03:18.869Z,79.30
2018-01-05T17:05:49.002Z,79.20
2018-01-05T17:08:18.942Z,78.40
2018-01-05T17:10:48.910Z,79.80
2018-01-05T17:13:18.753Z,78.80
2018-01-05T17:15:49.851Z,78.30
2018-01-05T17:18:19.439Z,78.30
2018-01-05T17:20:50.479Z,78.40
2018-01-05T17:23:19.912Z,78.20
2018-01-05T17:25:49.758Z,78.20
2018-01-05T17:28:20.974Z,77.10
2018-01-05T17:30:50.939Z,77.20
2018-01-05T17:33:20.607Z,77.80
2018-01-05T17:35:50.358Z,77.30
2018-01-05T17:38:20.172Z,78.50
2018-01-05T17:40:51.133Z,77.20
2018-01-05T17:43:20.775Z,77.20
2018-01-05T17:45:50.434Z,77.60
2018-01-05T17:48:20.181Z,77.80
2018-01-05T17:50:50.186Z,78.90
2018-01-05T17:53:19.688Z,78.80
2018-01-05T17:55:50.709Z,80.10
2018-01-05T17:58:20.431Z,80.30
2018-01-05T18:00:49.878Z,79.10
2018-01-05T18:03:19.550Z,78.60
2018-01-05T18:05:49.017Z,79.30
2018-01-05T18:08:19.040Z,76.80
2018-01-05T18:10:48.844Z,78.40
2018-01-05T18:13:19.324Z,78.60
2018-01-05T18:15:50.954Z,79.80
2018-01-05T18:18:20.629Z,79.80
2018-01-05T18:20:51.040Z,77.90
2018-01-05T18:23:22.004Z,78.30
2018-01-05T18:25:51.354Z,78.40
2018-01-05T18:28:21.048Z,80.00
2018-01-05T18:30:51.991Z,80.80
2018-01-05T18:33:21.778Z,80.70
2018-01-05T18:35:51.305Z,79.40
2018-01-05T18:38:20.641Z,77.80
2018-01-05T18:40:50.100Z,78.10
2018-01-05T18:43:19.536Z,78.00
2018-01-05T18:45:49.553Z,77.10
2018-01-05T18:48:19.234Z,75.00
2018-01-05T18:50:48.481Z,75.50
2018-01-05T18:53:18.957Z,74.20
2018-01-05T18:55:49.206Z,74.20
2018-01-05T18:58:19.684Z,75.40
2018-01-05T19:00:49.779Z,74.50
2018-01-05T19:03:21.757Z,72.50
2018-01-05T19:05:51.891Z,72.00
2018-01-05T19:08:22.830Z,72.40
2018-01-05T19:10:53.163Z,71.40
2018-01-05T19:13:24.059Z,69.50
2018-01-05T19:15:54.221Z,69.70
2018-01-05T19:18:24.051Z,69.80
2018-01-05T19:20:55.259Z,69.30
2018-01-05T19:23:24.651Z,70.00
2018-01-05T19:25:54.208Z,69.90
2018-01-05T19:28:23.862Z,69.00
2018-01-05T19:30:54.209Z,70.90
2018-01-05T19:33:24.011Z,72.50
2018-01-05T19:35:53.580Z,75.60
2018-01-05T19:38:23.424Z,74.40
2018-01-05T19:40:53.412Z,76.00
2018-01-05T19:43:23.248Z,76.70
2018-01-05T19:45:53.337Z,75.10
2018-01-05T19:48:24.824Z,74.70
2018-01-05T19:50:54.172Z,74.20
2018-01-05T19:53:24.230Z,73.10
2018-01-05T19:55:54.936Z,73.30
2018-01-05T19:58:24.304Z,73.60
2018-01-05T20:00:54.788Z,72.80
2018-01-05T20:03:24.369Z,72.40
2018-01-05T20:05:55.163Z,72.40
2018-01-05T20:08:25.470Z,72.30
2018-01-05T20:10:54.598Z,71.80
2018-01-05T20:13:24.631Z,71.10
2018-01-05T20:15:55.281Z,74.70
2018-01-05T20:18:24.964Z,74.80
2018-01-05T20:20:56.145Z,71.90
2018-01-05T20:23:25.987Z,73.80
2018-01-05T20:25:56.050Z,73.60
2018-01-05T20:28:25.450Z,68.40
2018-01-05T20:30:56.149Z,67.00
2018-01-05T20:33:25.699Z,67.20
2018-01-05T20:35:56.204Z,64.60
2018-01-05T20:38:26.602Z,67.60
2018-01-05T20:40:56.201Z,67.50
2018-01-05T20:43:26.072Z,67.20
2018-01-05T20:45:56.385Z,64.30
2018-01-05T20:48:26.944Z,65.90
2018-01-05T20:50:56.749Z,66.00
2018-01-05T20:53:26.345Z,64.50
2018-01-05T20:55:56.731Z,67.20
2018-01-05T20:58:26.584Z,66.80
2018-01-05T21:00:56.245Z,64.20
2018-01-05T21:03:25.887Z,65.30
2018-01-05T21:05:55.756Z,67.80
2018-01-05T21:08:25.541Z,63.50
2018-01-05T21:10:55.029Z,62.90
2018-01-05T21:13:25.177Z,61.50
2018-01-05T21:15:54.852Z,62.00
2018-01-05T21:18:24.371Z,61.30
2018-01-05T21:20:54.169Z,61.80
2018-01-05T21:23:24.215Z,61.20
2018-01-05T21:25:55.096Z,59.60
2018-01-05T21:28:24.689Z,59.90
2018-01-05T21:30:54.729Z,59.90
2018-01-05T21:33:24.341Z,61.10
2018-01-05T21:35:54.104Z,59.00
2018-01-05T21:38:23.521Z,59.30
2018-01-05T21:40:53.325Z,60.60
2018-01-05T21:43:22.704Z,60.00
2018-01-05T21:45:52.427Z,61.10
2018-01-05T21:48:21.573Z,61.80
2018-01-05T21:50:50.954Z,61.10
2018-01-05T21:53:20.074Z,62.00
2018-01-05T21:55:49.728Z,61.30
2018-01-05T21:58:19.300Z,60.60
2018-01-05T22:00:49.188Z,60.90
2018-01-05T22:03:18.643Z,60.60
2018-01-05T22:05:49.018Z,61.40
2018-01-05T22:08:19.536Z,61.40
2018-01-05T22:10:49.242Z,61.60
2018-01-05T22:13:19.328Z,61.80
2018-01-05T22:15:48.760Z,61.90
2018-01-05T22:18:19.336Z,62.20
2018-01-05T22:20:49.325Z,62.40
2018-01-05T22:23:19.675Z,61.30
2018-01-05T22:25:48.937Z,61.20
2018-01-05T22:28:19.508Z,62.00
2018-01-05T22:30:49.014Z,61.90
2018-01-05T22:33:18.549Z,61.80
2018-01-05T22:35:48.501Z,62.20
2018-01-05T22:38:17.771Z,62.10
2018-01-05T22:40:48.090Z,61.40
2018-01-05T22:43:17.450Z,61.30
2018-01-05T22:45:46.864Z,61.30
2018-01-05T22:48:16.237Z,60.80
2018-01-05T22:50:45.711Z,61.00
2018-01-05T22:53:15.327Z,61.20
2018-01-05T22:55:45.429Z,61.50
2018-01-05T22:58:15.744Z,61.90
2018-01-05T23:00:45.222Z,61.80
2018-01-05T23:03:14.465Z,62.20
2018-01-05T23:05:44.800Z,61.70
2018-01-05T23:08:14.422Z,61.60
2018-01-05T23:10:43.828Z,61.90
2018-01-05T23:13:13.077Z,61.60
2018-01-05T23:15:42.688Z,61.40
2018-01-05T23:18:12.070Z,61.40
2018-01-05T23:20:41.235Z,62.00
2018-01-05T23:23:10.729Z,60.90
2018-01-05T23:25:40.008Z,60.70
2018-01-05T23:28:09.468Z,60.60
2018-01-05T23:30:39.060Z,61.30
2018-01-05T23:33:09.167Z,61.10
2018-01-05T23:35:39.103Z,60.90
2018-01-05T23:38:08.391Z,62.00
2018-01-05T23:40:37.866Z,62.00
2018-01-05T23:43:07.294Z,61.20
2018-01-05T23:45:37.687Z,60.80
2018-01-05T23:48:07.580Z,60.50
2018-01-05T23:50:39.999Z,61.40
2018-01-05T23:53:09.467Z,61.40
2018-01-05T23:55:38.883Z,60.90
2018-01-05T23:58:08.450Z,61.30
